Time;durP1;ratioP1;P1;durP2;ratioP2;P2;SDS_P1;SDS_P2;PMS_P1;PMS_P2;Temp;Humidity;BMP_temperature;BMP_pressure;BME280_temperature;BME280_humidity;BME280_pressure;Samples;Min_cycle;Max_cycle;Signal;HPM_P1;HPM_P2
2023/09/27 00:01:35;;;;;;;9.48;2.50;;;;;;;13.23;66.30;100410.47;10278088;28;20334;-60
2023/09/27 00:06:37;;;;;;;3.47;2.13;;;;;;;13.18;66.20;100407.31;10297888;28;20046;-60
2023/09/27 00:11:39;;;;;;;5.00;2.45;;;;;;;13.13;66.23;100401.47;10297154;28;20441;-60
2023/09/27 00:16:42;;;;;;;4.55;2.20;;;;;;;13.09;66.19;100400.00;10251933;28;20042;-60
2023/09/27 00:21:44;;;;;;;4.70;2.25;;;;;;;12.92;66.67;100413.34;10291125;28;20561;-60
2023/09/27 00:26:46;;;;;;;4.82;1.88;;;;;;;12.98;66.30;100407.72;10293023;28;20081;-60
2023/09/27 00:31:48;;;;;;;5.88;2.20;;;;;;;13.01;66.12;100404.88;10288205;28;20548;-60
2023/09/27 00:36:51;;;;;;;3.90;2.40;;;;;;;12.98;65.98;100406.84;10291600;28;20083;-60
2023/09/27 00:41:54;;;;;;;4.15;2.10;;;;;;;12.92;65.88;100400.22;10294573;28;20047;-60
2023/09/27 00:46:56;;;;;;;10.23;2.58;;;;;;;12.89;66.16;100388.13;10296500;28;20046;-60
2023/09/27 00:51:59;;;;;;;138.13;5.63;;;;;;;12.53;66.07;100395.63;10277651;28;20046;-60
2023/09/27 00:57:02;;;;;;;3.78;2.13;;;;;;;12.27;66.96;100396.31;10278312;28;20471;-60
2023/09/27 01:02:05;;;;;;;12.98;2.70;;;;;;;12.22;66.85;100398.34;10262738;28;20038;-60
2023/09/27 01:07:08;;;;;;;5.07;2.00;;;;;;;12.20;67.44;100387.09;10292615;28;20575;-60
2023/09/27 01:12:10;;;;;;;19.55;2.47;;;;;;;12.36;67.34;100373.94;10265193;28;20721;-60
2023/09/27 01:17:12;;;;;;;95.63;4.07;;;;;;;12.43;67.02;100384.00;10285855;28;20306;-60
2023/09/27 01:22:14;;;;;;;3.90;2.05;;;;;;;12.36;66.94;100366.06;10275394;28;20066;-60
2023/09/27 01:27:18;;;;;;;21.70;2.22;;;;;;;12.37;66.96;100373.88;10308616;28;20137;-60
2023/09/27 01:32:20;;;;;;;4.72;2.40;;;;;;;12.25;67.18;100377.19;10273918;28;20054;-60
2023/09/27 01:37:22;;;;;;;3.63;2.33;;;;;;;12.43;67.27;100375.28;10278901;28;20046;-60
2023/09/27 01:42:24;;;;;;;3.78;1.98;;;;;;;12.55;67.04;100383.25;10276068;28;20158;-60
2023/09/27 01:47:26;;;;;;;2.95;1.85;;;;;;;12.60;67.12;100402.16;10275585;28;20053;-60
2023/09/27 01:52:29;;;;;;;3.22;2.08;;;;;;;12.76;67.03;100402.91;10294385;28;20692;-60
2023/09/27 01:57:31;;;;;;;4.43;2.53;;;;;;;12.97;67.01;100408.63;10342439;28;20137;-60
2023/09/27 02:02:33;;;;;;;9.60;2.60;;;;;;;13.22;66.89;100419.31;10293007;28;20038;-60
2023/09/27 02:07:39;;;;;;;6.03;1.80;;;;;;;13.21;66.63;100429.91;10299781;28;20046;-60
2023/09/27 02:12:41;;;;;;;4.35;2.53;;;;;;;13.24;66.17;100427.06;10302346;28;20129;-60
2023/09/27 02:17:43;;;;;;;4.07;2.30;;;;;;;13.25;66.04;100426.16;10284619;28;20498;-60
2023/09/27 02:22:49;;;;;;;4.00;2.13;;;;;;;13.10;65.89;100421.84;10282088;28;20047;-60
2023/09/27 02:27:52;;;;;;;7.40;2.72;;;;;;;12.96;66.33;100423.53;10277412;28;20046;-60
2023/09/27 02:32:54;;;;;;;7.40;2.97;;;;;;;13.10;66.46;100425.31;10281303;28;20046;-60
2023/09/27 02:37:56;;;;;;;9.85;3.50;;;;;;;13.22;66.74;100440.31;10300465;28;20046;-60
2023/09/27 02:42:58;;;;;;;16.30;3.75;;;;;;;13.25;66.84;100442.72;10299755;28;20051;-60
2023/09/27 02:48:02;;;;;;;12.25;3.28;;;;;;;13.24;67.01;100450.72;10238926;28;20125;-60
2023/09/27 02:53:04;;;;;;;6.03;3.35;;;;;;;13.32;66.99;100453.72;10301064;28;20137;-60
2023/09/27 02:58:06;;;;;;;5.78;2.90;;;;;;;13.27;66.87;100456.63;10273491;28;20047;-60
2023/09/27 03:03:13;;;;;;;5.15;3.00;;;;;;;13.19;66.98;100463.31;10304431;28;20502;-60
2023/09/27 03:08:16;;;;;;;9.82;3.08;;;;;;;13.25;66.91;100441.91;10281627;28;20047;-60
2023/09/27 03:13:18;;;;;;;32.75;3.20;;;;;;;13.10;66.61;100416.59;10298946;28;20413;-60
2023/09/27 03:18:20;;;;;;;6.13;3.15;;;;;;;12.69;67.46;100440.97;10263764;28;20048;-60
2023/09/27 03:23:22;;;;;;;24.77;3.13;;;;;;;12.74;67.30;100423.16;10297088;28;20060;-60
2023/09/27 03:28:24;;;;;;;7.03;3.20;;;;;;;12.64;67.49;100411.53;10297875;28;20568;-60
2023/09/27 03:33:27;;;;;;;35.47;3.72;;;;;;;12.67;67.53;100423.63;10281646;28;20438;-60
2023/09/27 03:38:29;;;;;;;37.97;3.80;;;;;;;12.53;67.87;100431.50;10313624;28;20048;-60
2023/09/27 03:43:31;;;;;;;78.18;3.70;;;;;;;12.51;68.18;100434.22;10282669;28;20145;-60
2023/09/27 03:48:34;;;;;;;14.35;2.78;;;;;;;12.60;67.89;100448.56;10297500;28;20133;-60
2023/09/27 03:53:36;;;;;;;21.15;3.40;;;;;;;12.75;67.97;100443.25;10297825;28;20052;-60
2023/09/27 03:58:38;;;;;;;44.03;3.85;;;;;;;12.87;67.94;100436.38;10279832;28;20038;-60
2023/09/27 04:03:40;;;;;;;21.63;3.80;;;;;;;13.02;67.41;100439.84;10279795;28;20046;-60
2023/09/27 04:08:42;;;;;;;27.38;4.55;;;;;;;12.95;67.36;100442.00;10282151;28;20046;-60
2023/09/27 04:13:45;;;;;;;41.78;5.03;;;;;;;12.98;67.44;100443.63;10299401;28;20046;-60
2023/09/27 04:18:47;;;;;;;34.80;4.07;;;;;;;13.04;67.48;100451.97;10280174;28;20042;-60
2023/09/27 04:23:56;;;;;;;75.35;6.30;;;;;;;12.95;67.83;100434.13;10277497;28;20061;-60
2023/09/27 04:29:00;;;;;;;63.38;6.03;;;;;;;12.94;67.28;100442.97;10277160;28;20042;-60
2023/09/27 04:34:02;;;;;;;87.53;5.55;;;;;;;12.89;67.63;100438.00;10290712;28;20135;-60
2023/09/27 04:39:11;;;;;;;54.08;5.10;;;;;;;12.83;67.70;100434.88;10287659;28;20405;-60
2023/09/27 04:44:16;;;;;;;70.65;4.60;;;;;;;12.70;67.85;100440.03;10284873;28;20498;-60
2023/09/27 04:49:18;;;;;;;34.13;3.67;;;;;;;12.75;67.95;100445.00;10270011;28;20051;-60
2023/09/27 04:54:20;;;;;;;79.53;5.45;;;;;;;12.76;67.99;100449.34;10283929;28;20034;-61
2023/09/27 04:59:22;;;;;;;15.77;3.60;;;;;;;12.78;67.88;100453.53;10296670;28;20130;-60
2023/09/27 05:04:24;;;;;;;23.00;3.47;;;;;;;12.81;67.75;100470.88;10298417;28;20050;-60
2023/09/27 05:09:27;;;;;;;23.27;3.53;;;;;;;12.87;67.67;100467.88;10296796;28;20421;-60
2023/09/27 05:14:29;;;;;;;39.38;3.90;;;;;;;12.75;67.86;100466.00;10298137;28;20069;-61
2023/09/27 05:19:31;;;;;;;46.33;4.20;;;;;;;12.77;67.75;100467.59;10295374;28;20112;-60
2023/09/27 05:24:38;;;;;;;43.95;3.83;;;;;;;12.70;67.57;100447.91;10277409;28;20230;-61
2023/09/27 05:29:41;;;;;;;17.35;2.97;;;;;;;12.34;67.94;100452.72;10295065;28;20184;-60
2023/09/27 05:34:43;;;;;;;58.90;4.13;;;;;;;12.30;67.90;100453.84;10294721;28;20038;-60
2023/09/27 05:39:45;;;;;;;94.18;6.25;;;;;;;12.25;68.21;100458.50;10287371;28;20078;-60
2023/09/27 05:44:47;;;;;;;30.75;3.60;;;;;;;12.24;67.98;100446.28;10288592;28;20098;-60
2023/09/27 05:49:49;;;;;;;79.70;4.28;;;;;;;12.36;68.13;100434.25;10291269;28;20080;-61
2023/09/27 05:54:51;;;;;;;65.00;3.80;;;;;;;12.42;67.74;100429.50;10292612;28;20100;-61
2023/09/27 05:59:54;;;;;;;14.35;2.95;;;;;;;12.44;67.71;100430.25;10290236;28;20046;-61
2023/09/27 06:04:57;;;;;;;49.60;3.47;;;;;;;12.33;67.65;100452.81;10290040;28;20156;-61
2023/09/27 06:09:59;;;;;;;45.85;4.20;;;;;;;12.37;67.66;100456.94;10292992;28;20038;-61
2023/09/27 06:15:02;;;;;;;14.85;3.22;;;;;;;12.42;67.71;100457.50;10291521;28;20137;-61
2023/09/27 06:20:05;;;;;;;9.20;2.90;;;;;;;12.52;67.25;100442.91;10288861;28;20076;-60
2023/09/27 06:25:08;;;;;;;18.52;3.13;;;;;;;12.61;67.39;100442.38;10283966;28;20107;-61
2023/09/27 06:30:11;;;;;;;33.83;4.50;;;;;;;12.89;66.83;100435.38;10288297;28;20402;-60
2023/09/27 06:35:14;;;;;;;18.55;4.03;;;;;;;12.93;66.40;100436.88;10299164;28;20061;-61
2023/09/27 06:40:17;;;;;;;56.75;4.95;;;;;;;12.94;66.38;100440.34;10304123;28;20047;-61
2023/09/27 06:45:19;;;;;;;34.72;4.47;;;;;;;13.11;66.66;100434.06;10300160;28;20053;-60
2023/09/27 06:50:22;;;;;;;6.10;3.33;;;;;;;13.38;66.07;100425.28;10299718;28;20053;-61
2023/09/27 06:55:24;;;;;;;59.03;5.07;;;;;;;13.32;66.10;100416.94;10301082;28;20429;-61
2023/09/27 07:00:26;;;;;;;35.85;4.15;;;;;;;13.38;66.08;100424.41;10300926;28;20051;-61
2023/09/27 07:05:28;;;;;;;17.83;4.28;;;;;;;13.29;65.82;100427.66;10299037;28;20572;-61
2023/09/27 07:10:30;;;;;;;9.85;3.58;;;;;;;13.47;65.93;100437.03;10299499;28;20129;-62
2023/09/27 07:15:32;;;;;;;10.05;3.70;;;;;;;13.65;65.66;100455.09;10297267;28;20041;-62
2023/09/27 07:20:36;;;;;;;6.53;3.42;;;;;;;13.94;65.56;100452.34;10279784;28;20051;-62
2023/09/27 07:25:38;;;;;;;8.63;3.80;;;;;;;14.01;64.91;100453.63;10294365;28;20292;-62
2023/09/27 07:30:40;;;;;;;10.32;4.13;;;;;;;13.85;65.18;100460.84;10318468;28;20400;-62
2023/09/27 07:35:43;;;;;;;6.28;3.53;;;;;;;13.88;65.33;100453.56;10297436;28;20050;-62
2023/09/27 07:40:47;;;;;;;12.48;4.03;;;;;;;14.01;65.26;100461.50;10295243;28;20042;-62
2023/09/27 07:45:49;;;;;;;58.33;5.28;;;;;;;14.00;65.20;100465.97;10295711;28;20046;-62
2023/09/27 07:50:51;;;;;;;7.40;4.05;;;;;;;14.07;65.23;100475.13;10295561;28;20042;-62
2023/09/27 07:55:56;;;;;;;9.68;3.72;;;;;;;14.34;65.02;100470.69;10290527;28;20050;-62
2023/09/27 08:00:58;;;;;;;17.88;3.85;;;;;;;14.27;64.75;100465.91;10292213;28;20105;-63
2023/09/27 08:06:01;;;;;;;9.35;3.58;;;;;;;14.55;64.87;100448.19;10295309;28;20050;-63
2023/09/27 08:11:03;;;;;;;7.75;4.03;;;;;;;14.79;64.51;100458.00;10291963;28;20048;-62
2023/09/27 08:16:07;;;;;;;11.38;4.38;;;;;;;15.05;63.95;100452.63;10251030;28;20046;-63
2023/09/27 08:21:09;;;;;;;9.23;4.13;;;;;;;15.13;63.33;100447.66;10253669;28;1157105;-63
2023/09/27 08:26:12;;;;;;;8.30;4.60;;;;;;;15.24;63.57;100436.38;10295788;28;20702;-63
2023/09/27 08:31:16;;;;;;;24.15;4.72;;;;;;;15.20;63.41;100432.25;10295870;28;20209;-62
2023/09/27 08:36:18;;;;;;;8.20;4.53;;;;;;;15.36;62.72;100424.94;10293521;28;20125;-63
2023/09/27 08:41:26;;;;;;;7.18;4.32;;;;;;;15.44;62.87;100417.31;10293587;28;20091;-62
2023/09/27 08:46:33;;;;;;;7.70;4.00;;;;;;;15.57;62.51;100422.59;10293257;28;20125;-62
2023/09/27 08:51:38;;;;;;;8.18;4.80;;;;;;;15.84;62.07;100434.59;10292393;28;20050;-62
2023/09/27 08:56:41;;;;;;;6.32;3.78;;;;;;;16.06;61.98;100433.88;10291798;28;20057;-62
2023/09/27 09:01:44;;;;;;;6.40;4.07;;;;;;;16.48;61.07;100425.38;10296624;28;20054;-62
2023/09/27 09:06:47;;;;;;;7.55;4.45;;;;;;;16.65;60.83;100421.44;10297541;28;20043;-63
2023/09/27 09:11:54;;;;;;;8.95;4.35;;;;;;;16.79;60.33;100413.28;10281405;28;20472;-63
2023/09/27 09:16:56;;;;;;;7.22;4.22;;;;;;;17.02;59.79;100418.44;10298416;28;20042;-63
2023/09/27 09:22:05;;;;;;;7.78;4.70;;;;;;;17.15;59.70;100422.78;10280442;28;20058;-63
2023/09/27 09:27:14;;;;;;;7.68;4.47;;;;;;;17.82;58.39;100411.13;10296464;28;20100;-62
2023/09/27 09:32:21;;;;;;;8.95;4.10;;;;;;;18.08;58.17;100414.25;10297581;28;20092;-62
2023/09/27 09:37:31;;;;;;;9.77;4.53;;;;;;;18.30;57.61;100414.19;10290975;28;20183;-62
2023/09/27 09:42:33;;;;;;;7.68;4.10;;;;;;;18.09;57.75;100411.50;10294914;28;20038;-62
2023/09/27 09:47:37;;;;;;;6.82;3.80;;;;;;;18.52;57.36;100411.41;10296011;28;20491;-63
2023/09/27 09:52:40;;;;;;;5.68;3.60;;;;;;;18.55;57.35;100408.47;10292361;28;20273;-62
2023/09/27 09:57:45;;;;;;;6.18;3.38;;;;;;;18.98;56.60;100403.81;10285996;28;20574;-62
2023/09/27 10:03:01;;;;;;;5.00;3.10;;;;;;;19.07;55.93;100400.41;10292198;28;20513;-63
2023/09/27 10:08:06;;;;;;;8.40;3.75;;;;;;;19.29;56.33;100394.88;10288356;28;20053;-62
2023/09/27 10:13:10;;;;;;;6.28;3.67;;;;;;;19.60;56.27;100389.50;10290955;28;20057;-62
2023/09/27 10:18:22;;;;;;;7.65;3.28;;;;;;;19.72;55.46;100377.75;10291797;28;20096;-62
2023/09/27 10:23:24;;;;;;;6.35;2.88;;;;;;;19.90;55.69;100373.47;10269751;28;20130;-62
2023/09/27 10:28:26;;;;;;;5.43;3.60;;;;;;;20.45;54.92;100363.88;10286597;28;20063;-62
2023/09/27 10:33:30;;;;;;;6.72;3.03;;;;;;;20.97;54.04;100356.16;10294683;28;20077;-62
2023/09/27 10:38:52;;;;;;;6.00;3.03;;;;;;;21.17;52.08;100348.06;10296574;28;20050;-62
2023/09/27 10:43:55;;;;;;;5.38;3.13;;;;;;;21.14;53.72;100340.38;10300680;28;20165;-62
2023/09/27 10:49:00;;;;;;;4.10;2.65;;;;;;;21.08;53.77;100331.19;10293194;28;20046;-62
2023/09/27 10:54:06;;;;;;;6.15;2.72;;;;;;;21.18;53.46;100313.34;10277477;28;20049;-62
2023/09/27 10:59:08;;;;;;;5.43;3.13;;;;;;;20.96;54.38;100311.94;10293991;28;20046;-62
2023/09/27 11:04:12;;;;;;;6.63;3.08;;;;;;;20.87;54.20;100301.34;10292751;28;20461;-62
2023/09/27 11:09:19;;;;;;;4.22;2.67;;;;;;;20.90;54.35;100295.75;10277458;28;20046;-62
2023/09/27 11:14:31;;;;;;;5.53;3.03;;;;;;;20.79;53.97;100286.13;10287131;28;20049;-62
2023/09/27 11:19:34;;;;;;;5.53;2.90;;;;;;;21.05;53.98;100276.47;10300733;28;20933;-62
2023/09/27 11:24:40;;;;;;;4.13;2.30;;;;;;;21.16;52.66;100258.59;10282136;28;20152;-62
2023/09/27 11:29:42;;;;;;;3.58;2.25;;;;;;;21.29;52.51;100254.59;10300464;28;20047;-62
2023/09/27 11:34:58;;;;;;;4.97;3.03;;;;;;;21.52;51.56;100237.19;10298185;28;20046;-62
2023/09/27 11:40:00;;;;;;;4.35;2.70;;;;;;;21.76;51.79;100231.25;10281178;28;20077;-62
2023/09/27 11:45:12;;;;;;;7.40;2.53;;;;;;;21.89;51.65;100234.31;10294634;28;20409;-62
2023/09/27 11:50:16;;;;;;;4.68;2.60;;;;;;;21.96;51.41;100224.72;10292410;28;20119;-62
2023/09/27 11:55:18;;;;;;;3.53;2.00;;;;;;;22.23;51.35;100205.09;10252136;28;20124;-62
2023/09/27 12:00:21;;;;;;;3.97;2.33;;;;;;;22.33;50.73;100201.28;10281826;28;20050;-62
2023/09/27 12:05:22;;;;;;;6.43;1.98;;;;;;;22.49;50.87;100193.38;10297418;28;20050;-62
2023/09/27 12:10:25;;;;;;;3.30;2.00;;;;;;;22.66;50.28;100181.75;10277341;28;20057;-62
2023/09/27 12:15:28;;;;;;;4.10;2.20;;;;;;;22.91;50.04;100176.50;10296034;28;20169;-62
2023/09/27 12:20:30;;;;;;;4.07;2.25;;;;;;;22.92;49.56;100160.34;10267333;28;20203;-62
2023/09/27 12:25:43;;;;;;;3.28;1.98;;;;;;;23.07;49.73;100148.00;10292732;28;20071;-62
2023/09/27 12:30:46;;;;;;;5.10;1.75;;;;;;;23.30;48.99;100132.16;10299782;28;20503;-61
2023/09/27 12:35:49;;;;;;;3.28;1.88;;;;;;;23.38;48.49;100129.47;10296429;28;20490;-62
2023/09/27 12:40:52;;;;;;;2.97;1.80;;;;;;;23.59;48.02;100127.16;10299867;28;20164;-62
2023/09/27 12:45:54;;;;;;;2.55;1.80;;;;;;;23.82;47.12;100113.91;10296446;28;20093;-62
2023/09/27 12:50:56;;;;;;;4.13;2.05;;;;;;;24.05;47.03;100102.28;10294541;28;20141;-62
2023/09/27 12:55:58;;;;;;;6.32;1.90;;;;;;;24.34;46.12;100090.13;10297812;28;20138;-62
2023/09/27 13:01:00;;;;;;;16.55;1.95;;;;;;;24.65;44.89;100082.94;10277026;28;20046;-62
2023/09/27 13:06:02;;;;;;;3.70;1.52;;;;;;;24.73;43.15;100085.56;10293415;28;20056;-62
2023/09/27 13:11:05;;;;;;;2.05;1.23;;;;;;;24.71;41.11;100082.22;10294251;28;20062;-62
2023/09/27 13:16:07;;;;;;;16.65;2.38;;;;;;;24.62;41.60;100083.25;10292562;28;20536;-62
2023/09/27 13:21:10;;;;;;;28.60;3.03;;;;;;;24.63;41.62;100071.56;10295152;28;20149;-62
2023/09/27 13:26:12;;;;;;;7.32;1.60;;;;;;;24.46;41.39;100072.69;10291978;28;20045;-62
2023/09/27 13:31:14;;;;;;;8.63;1.83;;;;;;;24.52;41.09;100062.13;10292526;28;20050;-63
2023/09/27 13:36:17;;;;;;;4.35;1.50;;;;;;;24.68;41.10;100067.34;10277120;28;20057;-62
2023/09/27 13:41:20;;;;;;;2.38;1.35;;;;;;;24.78;41.17;100059.09;10293886;28;20077;-62
2023/09/27 13:46:22;;;;;;;2.50;1.45;;;;;;;24.82;40.52;100058.56;10278978;28;20095;-62
2023/09/27 13:51:24;;;;;;;2.70;1.33;;;;;;;24.99;40.67;100062.78;10291120;28;20122;-62
2023/09/27 13:56:26;;;;;;;6.97;1.60;;;;;;;24.91;40.65;100052.16;10291245;28;20056;-62
2023/09/27 14:01:28;;;;;;;1.98;1.30;;;;;;;25.10;39.79;100050.81;10292212;28;20046;-62
2023/09/27 14:06:30;;;;;;;40.97;2.63;;;;;;;25.11;40.39;100036.41;10274357;28;20054;-62
2023/09/27 14:11:32;;;;;;;15.10;1.83;;;;;;;24.94;39.55;100026.84;10292346;28;20047;-62
2023/09/27 14:16:35;;;;;;;11.98;1.83;;;;;;;24.76;40.02;100026.34;10271809;28;20077;-62
2023/09/27 14:21:39;;;;;;;7.45;2.20;;;;;;;24.56;40.02;100025.16;10293894;28;20078;-62
2023/09/27 14:26:43;;;;;;;3.20;1.95;;;;;;;24.34;40.34;100026.81;10292596;28;20521;-62
2023/09/27 14:31:46;;;;;;;9.30;1.50;;;;;;;24.22;40.17;100014.88;10292655;28;20439;-62
2023/09/27 14:36:49;;;;;;;27.85;3.13;;;;;;;24.20;40.56;100014.22;10291313;28;20038;-62
2023/09/27 14:41:51;;;;;;;14.15;2.05;;;;;;;24.16;40.81;100004.91;10293855;28;20051;-62
2023/09/27 14:46:53;;;;;;;9.13;2.20;;;;;;;24.13;41.01;99998.06;10292461;28;20069;-62
2023/09/27 14:51:55;;;;;;;5.60;1.70;;;;;;;24.14;41.10;100001.56;10294775;28;20050;-62
2023/09/27 14:56:58;;;;;;;12.32;1.95;;;;;;;24.21;41.49;99992.66;10364471;28;20132;-62
2023/09/27 15:02:00;;;;;;;3.97;1.67;;;;;;;24.33;41.26;99984.25;10298225;28;20494;-62
2023/09/27 15:07:02;;;;;;;28.58;2.97;;;;;;;24.41;41.43;99984.19;10297374;28;20574;-62
2023/09/27 15:12:04;;;;;;;14.50;2.75;;;;;;;24.39;41.59;99980.84;10280889;28;20129;-62
2023/09/27 15:17:07;;;;;;;12.77;2.22;;;;;;;24.24;41.43;99981.63;10295787;28;20046;-65
2023/09/27 15:22:10;;;;;;;10.73;2.47;;;;;;;24.14;41.41;99989.00;10280486;28;20080;-62
2023/09/27 15:27:11;;;;;;;2.72;1.80;;;;;;;24.17;41.87;99982.50;10254148;28;20043;-62
2023/09/27 15:32:13;;;;;;;3.90;1.65;;;;;;;24.25;42.12;99987.78;10297398;28;20298;-62
2023/09/27 15:37:15;;;;;;;6.63;2.20;;;;;;;24.32;41.95;99987.91;10279951;28;20513;-62
2023/09/27 15:42:18;;;;;;;9.95;2.25;;;;;;;24.23;42.49;99979.09;10293073;28;20678;-62
2023/09/27 15:47:22;;;;;;;4.30;1.80;;;;;;;24.05;42.46;99968.69;10310621;28;20068;-62
2023/09/27 15:52:24;;;;;;;3.13;1.60;;;;;;;23.96;42.90;99971.59;10295127;28;20735;-62
2023/09/27 15:57:30;;;;;;;4.72;1.73;;;;;;;23.76;43.44;99987.22;10293512;28;20045;-62
2023/09/27 16:02:33;;;;;;;3.80;1.70;;;;;;;23.66;44.46;99994.59;10297257;28;20133;-62
2023/09/27 16:07:39;;;;;;;2.90;1.60;;;;;;;23.45;44.80;99991.72;10278785;28;20038;-62
2023/09/27 16:12:42;;;;;;;5.30;1.95;;;;;;;23.25;45.08;99991.22;10294201;28;20076;-62
2023/09/27 16:17:44;;;;;;;3.10;1.50;;;;;;;23.00;46.04;99999.47;10292933;28;20042;-62
2023/09/27 16:22:46;;;;;;;3.15;1.98;;;;;;;22.75;46.74;100013.81;10294108;28;20128;-63
2023/09/27 16:27:48;;;;;;;8.05;1.67;;;;;;;22.48;47.27;100006.94;10273455;28;20062;-62
2023/09/27 16:32:51;;;;;;;3.30;1.60;;;;;;;22.27;48.36;100011.94;10289103;28;20053;-62
2023/09/27 16:37:58;;;;;;;8.40;1.80;;;;;;;22.02;49.43;100007.50;10277146;28;20050;-62
2023/09/27 16:43:01;;;;;;;3.20;1.80;;;;;;;21.66;49.88;100009.56;10306410;28;20100;-62
2023/09/27 16:48:04;;;;;;;3.05;1.65;;;;;;;21.36;50.36;100007.41;10286645;28;20518;-62
2023/09/27 16:53:06;;;;;;;2.67;1.70;;;;;;;21.05;50.80;100007.03;10287805;28;20034;-62
2023/09/27 16:58:08;;;;;;;2.90;1.50;;;;;;;20.77;51.16;100006.34;10298021;28;20523;-62
2023/09/27 17:03:10;;;;;;;3.17;1.83;;;;;;;20.56;51.61;100007.66;10278478;28;20399;-62
2023/09/27 17:08:13;;;;;;;2.08;1.45;;;;;;;20.27;52.07;100002.56;10292641;28;20188;-62
2023/09/27 17:13:19;;;;;;;2.80;1.73;;;;;;;20.04;52.65;100009.28;10341660;28;20405;-62
2023/09/27 17:18:21;;;;;;;2.78;1.65;;;;;;;19.88;52.83;100004.66;10293970;28;20769;-62
2023/09/27 17:23:23;;;;;;;3.85;1.70;;;;;;;19.69;53.09;100009.19;10294749;28;20508;-62
2023/09/27 17:28:25;;;;;;;3.17;1.80;;;;;;;19.45;53.49;100013.22;10296611;28;20047;-62
2023/09/27 17:33:27;;;;;;;5.78;2.05;;;;;;;19.23;54.10;100005.63;10296884;28;20058;-62
2023/09/27 17:38:30;;;;;;;5.07;2.08;;;;;;;19.05;54.47;100012.66;10296166;28;20286;-61
2023/09/27 17:43:33;;;;;;;4.43;2.28;;;;;;;18.89;55.09;100009.72;10297143;28;20413;-62
2023/09/27 17:48:36;;;;;;;4.00;2.05;;;;;;;18.65;55.71;100009.31;10294723;28;20046;-61
2023/09/27 17:53:38;;;;;;;3.55;1.80;;;;;;;18.42;56.03;100002.66;10296551;28;20522;-61
2023/09/27 17:58:40;;;;;;;3.28;1.73;;;;;;;18.28;56.77;100001.25;10295859;28;20038;-62
2023/09/27 18:03:44;;;;;;;2.90;1.77;;;;;;;18.25;57.28;99996.25;10295806;28;20452;-60
2023/09/27 18:08:47;;;;;;;3.47;1.83;;;;;;;18.15;57.40;99995.38;10273324;28;20050;-60
2023/09/27 18:13:49;;;;;;;3.10;1.83;;;;;;;18.04;57.80;99997.28;10293169;28;20768;-60
2023/09/27 18:18:53;;;;;;;3.58;2.00;;;;;;;17.88;58.44;100010.22;10268163;28;20062;-60
2023/09/27 18:23:55;;;;;;;4.63;1.95;;;;;;;17.71;59.17;100009.91;10276261;28;20053;-61
2023/09/27 18:28:58;;;;;;;3.10;1.85;;;;;;;17.51;59.73;100005.53;10249683;28;20058;-60
2023/09/27 18:34:00;;;;;;;4.82;1.83;;;;;;;17.41;59.92;100007.28;10305625;28;20058;-60
2023/09/27 18:39:03;;;;;;;3.28;2.10;;;;;;;17.26;60.25;100003.28;10280658;28;20522;-60
2023/09/27 18:44:06;;;;;;;4.28;1.98;;;;;;;17.20;60.33;100009.09;10298512;28;20498;-60
2023/09/27 18:49:08;;;;;;;3.22;1.80;;;;;;;17.08;60.74;100020.72;10280882;28;20422;-60
2023/09/27 18:54:10;;;;;;;3.67;2.38;;;;;;;16.97;61.06;100020.81;10270714;28;20049;-60
2023/09/27 18:59:12;;;;;;;4.28;2.47;;;;;;;16.85;61.17;100013.94;10299170;28;20105;-60
2023/09/27 19:04:14;;;;;;;4.25;2.25;;;;;;;16.57;61.52;100011.94;10277728;28;20414;-60
2023/09/27 19:09:18;;;;;;;6.30;2.33;;;;;;;16.40;61.84;100015.94;10296862;28;20046;-60
2023/09/27 19:14:20;;;;;;;3.72;2.30;;;;;;;16.38;62.39;100017.00;10365139;28;20078;-60
2023/09/27 19:19:22;;;;;;;6.88;2.45;;;;;;;16.25;62.45;100009.25;10298466;28;20180;-60
2023/09/27 19:24:24;;;;;;;6.50;2.83;;;;;;;16.14;62.66;100015.41;10297295;28;20437;-60
2023/09/27 19:29:26;;;;;;;4.20;2.40;;;;;;;16.14;62.67;100004.84;10294047;28;20043;-60
2023/09/27 19:34:28;;;;;;;4.28;2.45;;;;;;;15.99;62.69;100007.91;10300375;28;20050;-60
2023/09/27 19:39:30;;;;;;;5.53;2.88;;;;;;;15.90;62.77;100006.84;10302041;28;20072;-60
2023/09/27 19:44:32;;;;;;;5.53;2.33;;;;;;;15.78;63.09;100018.38;10298625;28;20043;-60
2023/09/27 19:49:34;;;;;;;4.65;2.38;;;;;;;15.79;63.48;100027.97;10299244;28;20050;-60
2023/09/27 19:54:36;;;;;;;4.85;2.22;;;;;;;15.84;63.50;100022.31;10313100;28;20077;-60
2023/09/27 19:59:39;;;;;;;5.03;2.78;;;;;;;15.78;63.62;100012.25;10294137;28;20395;-60
2023/09/27 20:04:41;;;;;;;5.13;2.67;;;;;;;15.79;63.72;100011.31;10308500;28;20051;-60
2023/09/27 20:09:43;;;;;;;4.38;2.50;;;;;;;15.81;63.60;100020.78;10296765;28;20132;-60
2023/09/27 20:14:45;;;;;;;4.28;2.53;;;;;;;15.57;63.73;100020.06;10288144;28;20125;-60
2023/09/27 20:19:48;;;;;;;4.18;2.50;;;;;;;15.46;64.25;100022.69;10269465;28;20066;-60
2023/09/27 20:24:50;;;;;;;4.70;2.55;;;;;;;15.57;64.11;100017.41;10292757;28;20157;-60
2023/09/27 20:29:52;;;;;;;3.17;2.00;;;;;;;15.64;64.17;100016.00;10299678;28;20038;-60
2023/09/27 20:34:54;;;;;;;4.45;2.58;;;;;;;15.64;64.11;100018.63;10301098;28;20085;-60
2023/09/27 20:39:56;;;;;;;5.38;2.53;;;;;;;15.52;63.71;100014.31;10301502;28;20506;-60
2023/09/27 20:44:59;;;;;;;5.10;2.13;;;;;;;15.36;63.81;100014.66;10301049;28;20054;-60
2023/09/27 20:50:01;;;;;;;4.40;2.42;;;;;;;15.22;64.50;100012.28;10281773;28;20046;-60
2023/09/27 20:55:09;;;;;;;4.60;2.42;;;;;;;15.06;64.46;100009.09;10267304;28;20069;-60
2023/09/27 21:00:12;;;;;;;6.25;2.78;;;;;;;15.09;64.69;100008.03;10296498;28;20257;-60
2023/09/27 21:05:14;;;;;;;4.13;2.47;;;;;;;15.04;64.57;99997.03;10296847;28;20054;-60
2023/09/27 21:10:17;;;;;;;4.80;2.35;;;;;;;15.06;64.62;99993.31;10296104;28;20061;-60
2023/09/27 21:15:19;;;;;;;3.88;2.50;;;;;;;15.11;64.53;99979.78;10297455;28;20316;-60
2023/09/27 21:20:21;;;;;;;3.67;2.15;;;;;;;15.02;64.51;99983.16;10292667;28;20298;-60
2023/09/27 21:25:24;;;;;;;6.10;2.30;;;;;;;14.98;64.86;99979.06;10294863;28;20466;-60
2023/09/27 21:30:28;;;;;;;6.03;2.40;;;;;;;15.02;64.71;99976.06;10296079;28;20157;-60
2023/09/27 21:35:30;;;;;;;4.20;2.30;;;;;;;15.00;64.50;99983.25;10296041;28;20047;-59
2023/09/27 21:40:33;;;;;;;5.13;2.92;;;;;;;14.98;64.59;99982.53;10296132;28;20073;-60
2023/09/27 21:45:35;;;;;;;5.28;2.70;;;;;;;14.94;64.37;99991.63;10297123;28;20257;-60
2023/09/27 21:50:39;;;;;;;4.85;2.00;;;;;;;14.93;64.19;100004.91;10277181;28;20038;-60
2023/09/27 21:55:41;;;;;;;3.75;2.10;;;;;;;14.72;64.65;99998.63;10294266;28;20422;-60
2023/09/27 22:00:46;;;;;;;3.28;1.95;;;;;;;14.69;64.44;100006.78;10294727;28;20058;-60
2023/09/27 22:05:48;;;;;;;3.67;2.00;;;;;;;14.66;64.41;100004.38;10295369;28;20046;-60
2023/09/27 22:10:50;;;;;;;4.00;2.03;;;;;;;14.67;64.74;99988.47;10264188;28;20046;-60
2023/09/27 22:15:58;;;;;;;3.53;2.17;;;;;;;14.33;64.83;99976.97;10294197;28;20050;-60
2023/09/27 22:21:14;;;;;;;2.90;1.85;;;;;;;14.24;65.37;99982.91;10267266;28;20038;-60
2023/09/27 22:26:17;;;;;;;3.40;2.05;;;;;;;14.40;65.42;100001.03;10294790;28;20046;-60
2023/09/27 22:31:26;;;;;;;4.10;2.20;;;;;;;14.48;65.30;99996.88;10298585;28;20047;-59
2023/09/27 22:36:28;;;;;;;4.80;2.58;;;;;;;14.46;65.07;99996.16;10298506;28;20504;-60
2023/09/27 22:41:30;;;;;;;4.95;2.80;;;;;;;14.46;64.79;99983.00;10298405;28;21028;-59
2023/09/27 22:46:32;;;;;;;7.45;3.47;;;;;;;14.31;65.14;99975.38;10298067;28;20057;-59
2023/09/27 22:51:34;;;;;;;8.25;3.25;;;;;;;14.30;65.15;99974.56;10280900;28;20081;-59
2023/09/27 22:56:36;;;;;;;5.70;2.70;;;;;;;14.34;65.16;99962.88;10276908;28;20054;-59
2023/09/27 23:01:39;;;;;;;4.70;2.50;;;;;;;14.38;65.38;99959.06;10295515;28;20046;-60
2023/09/27 23:06:44;;;;;;;9.73;3.15;;;;;;;14.15;65.15;99957.28;10294213;28;20038;-60
2023/09/27 23:11:49;;;;;;;4.15;2.30;;;;;;;14.11;65.85;99966.34;10293710;28;20119;-60